Bushnell, Illinois
Current Conditions -  °F | °C
As of 6:15 PM on Wednesday 28 Jan 2015 (Local Time) from KMQB Reporting Station
Clear Clear  
Wind Chill: 28°   Ceiling: Unl
Heat Index: 37°   Visibility: 10mi
Dew Point: 33°   Wind: 16mph
Humidity: 84%   Direction: 140°SE
Pressure: 29.85"   Gusts: 24mph
Location:  40.55°N, 90.51°W
Report Text: KMQB 290015Z AUTO 14014G21KT 10SM CLR 03/00 A2985 RMK AO2 T00290004
Loading
Personal Weather Stations






























Interactive Weather Map New forecast layout! Learn more

10-Day Weather Forecast

Advertisements
Track Severe Weather on mobile